Time;durP1;ratioP1;P1;durP2;ratioP2;P2;SDS_P1;SDS_P2;PMS_P1;PMS_P2;Temp;Humidity;BMP_temperature;BMP_pressure;BME280_temperature;BME280_humidity;BME280_pressure;Samples;Min_cycle;Max_cycle;Signal;HPM_P1;HPM_P2
2024/03/30 00:01:22;;;;;;;6.50;3.87;;;11.70;99.90;;;;;;5030530;28;20254;-57
2024/03/30 00:03:47;;;;;;;5.50;5.00;;;11.70;99.90;;;;;;5030897;28;20505;-57
2024/03/30 00:06:13;;;;;;;4.53;4.13;;;11.60;99.90;;;;;;5031052;28;20207;-52
2024/03/30 00:08:39;;;;;;;6.67;3.83;;;11.60;99.90;;;;;;5031061;28;20559;-54
2024/03/30 00:11:04;;;;;;;4.90;4.30;;;11.60;99.90;;;;;;5030348;28;20671;-56
2024/03/30 00:13:31;;;;;;;3.90;3.50;;;11.60;99.90;;;;;;5011716;28;20175;-55
2024/03/30 00:15:57;;;;;;;6.50;4.53;;;11.60;99.90;;;;;;5030439;28;20262;-55
2024/03/30 00:18:23;;;;;;;5.73;4.73;;;11.60;99.90;;;;;;5032980;28;20450;-56
2024/03/30 00:20:49;;;;;;;5.07;3.83;;;11.60;99.90;;;;;;5033206;28;20418;-57
2024/03/30 00:23:15;;;;;;;5.57;4.43;;;11.50;99.90;;;;;;5033954;28;20882;-57
2024/03/30 00:25:53;;;;;;;5.40;4.37;;;11.50;99.90;;;;;;5034436;28;20544;-57
2024/03/30 00:28:19;;;;;;;5.37;4.67;;;11.50;99.90;;;;;;5015894;28;20279;-55
2024/03/30 00:30:45;;;;;;;5.40;4.73;;;11.50;99.90;;;;;;5034398;28;20513;-56
2024/03/30 00:33:12;;;;;;;5.70;4.60;;;11.50;99.90;;;;;;5034225;28;20180;-57
2024/03/30 00:35:37;;;;;;;6.10;4.40;;;11.40;99.90;;;;;;5034258;28;20460;-55
2024/03/30 00:38:04;;;;;;;5.00;4.10;;;11.40;99.90;;;;;;5016530;28;20418;-53
2024/03/30 00:40:30;;;;;;;6.20;4.50;;;11.40;99.90;;;;;;5034455;28;20656;-56
2024/03/30 00:42:55;;;;;;;7.93;4.43;;;11.40;99.90;;;;;;5030478;28;20525;-55
2024/03/30 00:45:21;;;;;;;8.30;5.47;;;11.40;99.90;;;;;;5034341;28;20670;-56
2024/03/30 00:47:48;;;;;;;6.57;5.93;;;11.30;99.90;;;;;;5035006;28;20206;-55
2024/03/30 00:50:13;;;;;;;6.27;5.07;;;11.30;99.90;;;;;;5033983;28;20302;-57
2024/03/30 00:52:39;;;;;;;6.37;5.00;;;11.30;99.90;;;;;;5034164;28;20446;-57
2024/03/30 00:55:04;;;;;;;6.10;4.80;;;11.20;99.90;;;;;;5033959;28;20183;-57
2024/03/30 00:57:30;;;;;;;6.60;5.40;;;11.20;99.90;;;;;;5034565;28;20160;-55
2024/03/30 00:59:56;;;;;;;6.60;5.47;;;11.10;99.90;;;;;;5032371;28;20287;-56
2024/03/30 01:02:21;;;;;;;6.50;5.57;;;11.10;99.90;;;;;;5033996;28;20203;-56
2024/03/30 01:04:47;;;;;;;6.30;5.30;;;11.00;99.90;;;;;;5033949;28;20635;-57
2024/03/30 01:07:12;;;;;;;7.40;6.60;;;11.00;99.90;;;;;;5033859;28;20314;-57
2024/03/30 01:09:38;;;;;;;6.40;5.33;;;10.90;99.90;;;;;;5034072;28;20271;-55
2024/03/30 01:12:04;;;;;;;6.30;5.70;;;10.90;99.90;;;;;;5033884;28;20176;-57
2024/03/30 01:14:33;;;;;;;6.30;5.70;;;10.80;99.90;;;;;;5034015;28;20665;-57
2024/03/30 01:16:59;;;;;;;5.30;4.50;;;10.80;99.90;;;;;;5015067;28;20462;-57
2024/03/30 01:19:25;;;;;;;8.77;4.80;;;10.90;99.90;;;;;;5033778;28;20450;-57
2024/03/30 01:21:51;;;;;;;6.90;5.33;;;10.80;99.90;;;;;;5033754;28;20813;-57
2024/03/30 01:24:17;;;;;;;5.50;4.87;;;10.80;99.90;;;;;;5033639;28;20813;-55
2024/03/30 01:26:56;;;;;;;5.70;5.03;;;10.70;99.90;;;;;;5033933;28;20244;-55
2024/03/30 01:29:25;;;;;;;5.77;5.17;;;10.70;99.90;;;;;;5032400;28;20436;-56
2024/03/30 01:31:52;;;;;;;6.20;5.30;;;10.70;99.90;;;;;;5033634;28;20493;-58
2024/03/30 01:34:18;;;;;;;6.60;5.10;;;10.70;99.90;;;;;;5031795;28;20440;-58
2024/03/30 01:36:44;;;;;;;5.40;4.53;;;10.70;99.90;;;;;;5033589;28;20939;-57
2024/03/30 01:39:09;;;;;;;5.30;4.80;;;10.60;99.90;;;;;;5033360;28;20434;-56
2024/03/30 01:41:36;;;;;;;5.77;5.17;;;10.60;99.90;;;;;;5033671;28;20199;-57
2024/03/30 01:44:02;;;;;;;5.43;4.80;;;10.60;99.90;;;;;;5033530;28;20176;-57
2024/03/30 01:46:29;;;;;;;5.77;5.13;;;10.50;99.90;;;;;;5033446;28;20446;-57
2024/03/30 01:48:55;;;;;;;5.07;4.57;;;10.50;99.90;;;;;;5031715;28;20545;-57
2024/03/30 01:51:21;;;;;;;5.30;4.80;;;10.40;99.90;;;;;;5033226;28;20761;-57
2024/03/30 01:53:47;;;;;;;5.90;5.30;;;10.40;99.90;;;;;;5033069;28;20410;-57
2024/03/30 01:56:13;;;;;;;5.93;4.97;;;10.40;99.90;;;;;;5032986;28;20183;-58
2024/03/30 01:58:39;;;;;;;5.97;5.37;;;10.40;99.90;;;;;;5033089;28;20485;-58
2024/03/30 02:01:05;;;;;;;7.60;5.20;;;10.30;99.90;;;;;;5033043;28;20961;-56
2024/03/30 02:03:31;;;;;;;6.10;5.60;;;10.30;99.90;;;;;;5032913;28;20583;-58
2024/03/30 02:05:58;;;;;;;6.27;4.77;;;10.30;99.90;;;;;;5031315;28;20481;-52
2024/03/30 02:08:26;;;;;;;5.77;4.23;;;10.20;99.90;;;;;;5032711;28;20511;-55
2024/03/30 02:10:53;;;;;;;6.17;5.50;;;10.20;99.90;;;;;;5032960;28;20493;-54
2024/03/30 02:13:19;;;;;;;7.73;5.33;;;10.20;99.90;;;;;;5030857;28;20430;-54
2024/03/30 02:15:44;;;;;;;7.80;5.20;;;10.20;99.90;;;;;;5032565;28;20465;-58
2024/03/30 02:18:10;;;;;;;6.73;5.10;;;10.20;99.90;;;;;;5032419;28;20222;-55
2024/03/30 02:20:36;;;;;;;5.60;4.30;;;10.10;99.90;;;;;;5032744;28;20191;-56
2024/03/30 02:23:02;;;;;;;5.60;5.13;;;10.10;99.90;;;;;;5032407;28;20184;-55
2024/03/30 02:25:27;;;;;;;4.50;4.10;;;10.10;99.90;;;;;;5032419;28;20195;-59
2024/03/30 02:27:53;;;;;;;4.07;3.77;;;10.10;99.90;;;;;;5032495;28;20180;-58
2024/03/30 02:30:28;;;;;;;4.60;4.20;;;10.10;99.90;;;;;;4980359;28;20180;-58
2024/03/30 02:32:54;;;;;;;4.20;3.77;;;10.20;99.90;;;;;;5031009;28;20213;-58
2024/03/30 02:35:20;;;;;;;4.10;3.80;;;10.20;99.90;;;;;;5032156;28;20418;-57
2024/03/30 02:37:46;;;;;;;6.00;4.60;;;10.20;99.90;;;;;;5032730;28;20893;-54
2024/03/30 02:40:13;;;;;;;4.67;4.27;;;10.20;99.90;;;;;;5045897;22;20852;-64
2024/03/30 02:42:38;;;;;;;5.40;3.60;;;10.10;99.90;;;;;;5033052;28;20423;-63
2024/03/30 02:45:06;;;;;;;5.73;3.63;;;10.20;99.90;;;;;;5028888;28;20556;-63
2024/03/30 02:47:31;;;;;;;5.57;4.40;;;10.20;99.90;;;;;;5032621;28;20168;-65
2024/03/30 02:49:57;;;;;;;4.90;3.83;;;10.20;99.90;;;;;;5032520;28;20414;-65
2024/03/30 02:52:22;;;;;;;4.20;3.70;;;10.20;99.90;;;;;;5032660;28;20196;-65
2024/03/30 02:54:48;;;;;;;5.07;4.63;;;10.20;99.90;;;;;;5032427;28;20183;-64
2024/03/30 02:57:14;;;;;;;4.43;3.73;;;10.10;99.90;;;;;;5032346;28;20187;-64
2024/03/30 02:59:40;;;;;;;3.80;3.40;;;10.10;99.90;;;;;;5032719;28;20637;-63
2024/03/30 03:02:05;;;;;;;3.67;3.37;;;10.00;99.90;;;;;;5020130;28;20509;-63
2024/03/30 03:04:31;;;;;;;4.03;3.47;;;10.00;99.90;;;;;;5030596;28;20183;-63
2024/03/30 03:06:56;;;;;;;3.77;3.00;;;10.00;99.90;;;;;;5031700;28;20200;-63
2024/03/30 03:09:22;;;;;;;3.23;2.90;;;10.00;99.90;;;;;;5032033;28;20176;-63
2024/03/30 03:11:48;;;;;;;3.23;2.93;;;10.00;99.90;;;;;;5031924;28;20725;-64
2024/03/30 03:14:13;;;;;;;2.80;2.60;;;10.10;99.90;;;;;;5031709;28;20213;-64
2024/03/30 03:16:39;;;;;;;3.03;2.73;;;10.10;99.90;;;;;;5032246;28;20187;-64
2024/03/30 03:19:04;;;;;;;2.93;2.63;;;10.10;99.90;;;;;;5026762;28;20193;-64
2024/03/30 03:21:30;;;;;;;4.33;2.90;;;10.10;99.90;;;;;;5030458;28;20262;-62
2024/03/30 03:23:56;;;;;;;3.63;3.33;;;10.10;99.90;;;;;;5030175;28;20199;-63
2024/03/30 03:26:21;;;;;;;4.00;3.70;;;10.00;99.90;;;;;;5030398;28;20203;-64
2024/03/30 03:28:47;;;;;;;5.27;3.40;;;10.00;99.90;;;;;;5030218;28;20205;-63
2024/03/30 03:31:12;;;;;;;5.37;3.10;;;10.00;99.90;;;;;;5030183;28;20245;-64
2024/03/30 03:33:38;;;;;;;3.63;3.33;;;10.00;99.90;;;;;;5029944;28;20175;-63
2024/03/30 03:36:04;;;;;;;4.10;3.60;;;10.00;99.90;;;;;;5020035;28;20271;-62
2024/03/30 03:38:29;;;;;;;3.50;3.20;;;9.90;99.90;;;;;;5026680;28;20259;-64
2024/03/30 03:40:55;;;;;;;5.53;4.90;;;9.90;99.90;;;;;;5030096;28;20533;-63
2024/03/30 03:43:21;;;;;;;5.03;4.53;;;9.90;99.90;;;;;;5029874;28;20605;-63
2024/03/30 03:45:47;;;;;;;4.57;4.10;;;9.80;99.90;;;;;;5017196;28;20649;-62
2024/03/30 03:48:13;;;;;;;3.57;3.27;;;9.90;99.90;;;;;;5029409;28;20179;-62
2024/03/30 03:50:39;;;;;;;3.40;3.10;;;9.90;99.90;;;;;;5029998;28;20434;-62
2024/03/30 03:53:05;;;;;;;3.93;3.63;;;9.90;99.90;;;;;;5032874;28;20183;-62
2024/03/30 03:55:35;;;;;;;3.80;3.07;;;9.90;99.90;;;;;;5017669;28;21032;-63
2024/03/30 03:58:01;;;;;;;5.20;3.90;;;9.80;99.90;;;;;;5033395;28;20301;-64
2024/03/30 04:00:27;;;;;;;3.33;2.80;;;9.80;99.90;;;;;;5016431;28;20462;-64
2024/03/30 04:02:53;;;;;;;5.37;3.60;;;9.80;99.90;;;;;;5032659;28;20182;-63
2024/03/30 04:05:19;;;;;;;4.97;3.43;;;9.80;99.90;;;;;;5032403;28;20253;-63
2024/03/30 04:07:44;;;;;;;3.97;3.67;;;9.70;99.90;;;;;;5032542;28;20496;-64
2024/03/30 04:10:14;;;;;;;3.90;3.27;;;9.70;99.90;;;;;;5032567;28;20309;-64
2024/03/30 04:12:39;;;;;;;3.40;3.10;;;9.80;99.90;;;;;;5033152;28;20176;-63
2024/03/30 04:15:05;;;;;;;3.40;2.90;;;9.80;99.90;;;;;;5033489;28;20429;-66
2024/03/30 04:17:34;;;;;;;3.70;3.33;;;9.70;99.90;;;;;;5026306;28;20565;-62
2024/03/30 04:19:59;;;;;;;4.03;3.53;;;9.70;99.90;;;;;;5028350;28;20442;-62
2024/03/30 04:22:25;;;;;;;4.87;4.00;;;9.80;99.90;;;;;;5032908;28;20426;-63
2024/03/30 04:24:51;;;;;;;7.67;3.77;;;9.70;99.90;;;;;;5032441;28;20215;-63
2024/03/30 04:27:17;;;;;;;5.00;3.60;;;9.80;99.90;;;;;;5023830;28;20216;-63
2024/03/30 04:29:42;;;;;;;3.60;3.30;;;9.70;99.90;;;;;;5032644;28;20179;-63
2024/03/30 04:32:08;;;;;;;3.93;3.20;;;9.70;99.90;;;;;;5024102;28;20577;-63
2024/03/30 04:34:35;;;;;;;3.93;3.53;;;9.60;99.90;;;;;;5024744;28;20190;-63
2024/03/30 04:37:00;;;;;;;3.93;3.60;;;9.60;99.90;;;;;;5030777;28;20198;-63
2024/03/30 04:39:26;;;;;;;3.43;2.93;;;9.60;99.90;;;;;;5033366;28;20505;-64
2024/03/30 04:41:51;;;;;;;4.47;4.07;;;9.60;99.90;;;;;;5034427;28;20207;-63
2024/03/30 04:44:17;;;;;;;4.10;3.10;;;9.50;99.90;;;;;;5034338;28;20220;-63
2024/03/30 04:46:43;;;;;;;3.70;3.40;;;9.50;99.90;;;;;;5024504;28;20203;-63
2024/03/30 04:49:08;;;;;;;3.33;3.10;;;9.50;99.90;;;;;;5033119;28;20195;-63
2024/03/30 04:51:34;;;;;;;4.33;3.13;;;9.50;99.90;;;;;;5016725;28;20254;-63
2024/03/30 04:53:59;;;;;;;4.03;3.63;;;9.50;99.90;;;;;;5032963;28;20186;-63
2024/03/30 04:56:25;;;;;;;4.00;3.60;;;9.50;99.90;;;;;;5032138;28;20215;-63
2024/03/30 04:58:50;;;;;;;4.17;3.33;;;9.50;99.90;;;;;;5032280;28;20202;-63
2024/03/30 05:01:16;;;;;;;4.50;4.10;;;9.50;99.90;;;;;;5022466;28;20230;-64
2024/03/30 05:03:42;;;;;;;4.23;3.37;;;9.50;99.90;;;;;;5011898;28;20195;-63
2024/03/30 05:06:07;;;;;;;3.43;3.13;;;9.60;99.90;;;;;;5032621;28;20207;-63
2024/03/30 05:08:34;;;;;;;4.50;2.80;;;9.60;99.90;;;;;;5019526;28;20654;-63
2024/03/30 05:11:00;;;;;;;3.40;3.10;;;9.70;99.90;;;;;;5016833;28;20485;-63
2024/03/30 05:13:27;;;;;;;6.00;3.90;;;9.70;99.90;;;;;;5025204;28;20734;-63
2024/03/30 05:15:53;;;;;;;3.80;3.40;;;9.70;99.90;;;;;;5025639;28;20429;-63
2024/03/30 05:18:22;;;;;;;4.67;3.70;;;9.80;99.90;;;;;;5026349;28;20441;-63
2024/03/30 05:20:57;;;;;;;4.30;3.90;;;9.90;99.90;;;;;;5018990;28;20768;-64
2024/03/30 05:23:25;;;;;;;4.00;3.60;;;9.90;99.90;;;;;;5022349;28;20457;-63
2024/03/30 05:25:51;;;;;;;6.00;3.23;;;9.90;99.90;;;;;;5018412;28;20995;-63
2024/03/30 05:28:19;;;;;;;4.00;3.60;;;10.10;99.90;;;;;;5021679;28;20459;-64
2024/03/30 05:30:47;;;;;;;4.93;3.20;;;10.20;99.90;;;;;;5026315;28;20964;-64
2024/03/30 05:33:14;;;;;;;6.60;4.37;;;10.20;99.90;;;;;;5022773;28;20432;-63
2024/03/30 05:35:39;;;;;;;4.77;4.10;;;10.30;99.90;;;;;;5022975;28;20812;-63
2024/03/30 05:38:05;;;;;;;4.43;3.63;;;10.30;99.90;;;;;;5023403;28;20427;-62
2024/03/30 05:40:34;;;;;;;4.13;3.83;;;10.40;99.90;;;;;;5022207;28;20200;-63
2024/03/30 05:43:04;;;;;;;5.13;4.63;;;10.70;99.90;;;;;;5031113;28;20517;-63
2024/03/30 05:45:30;;;;;;;5.90;4.27;;;10.80;99.90;;;;;;5030707;28;20552;-64
2024/03/30 05:47:56;;;;;;;4.57;3.70;;;10.90;99.90;;;;;;5021761;28;20473;-64
2024/03/30 05:50:23;;;;;;;5.60;4.73;;;11.00;99.90;;;;;;5012505;28;20450;-65
2024/03/30 05:52:49;;;;;;;5.40;4.30;;;11.00;99.90;;;;;;5024151;28;20427;-64
2024/03/30 05:55:15;;;;;;;12.00;4.20;;;10.90;99.90;;;;;;5024608;28;20493;-64
2024/03/30 05:57:41;;;;;;;5.50;3.60;;;10.90;99.90;;;;;;5030728;28;20421;-65
2024/03/30 06:00:10;;;;;;;5.00;3.30;;;10.80;99.90;;;;;;5029998;28;20257;-64
2024/03/30 06:02:36;;;;;;;4.43;3.40;;;10.70;99.90;;;;;;5025083;28;20218;-64
2024/03/30 06:05:02;;;;;;;6.33;4.03;;;10.70;99.90;;;;;;5025831;28;20438;-64
2024/03/30 06:07:27;;;;;;;5.23;3.67;;;10.70;99.90;;;;;;5030814;28;20489;-65
2024/03/30 06:09:53;;;;;;;3.90;2.97;;;10.80;99.90;;;;;;5030677;28;20195;-65
2024/03/30 06:12:18;;;;;;;9.97;4.93;;;10.90;99.90;;;;;;5012582;28;20199;-64
2024/03/30 06:14:47;;;;;;;4.90;3.43;;;11.00;99.90;;;;;;5024560;28;20271;-63
2024/03/30 06:17:13;;;;;;;3.73;3.10;;;11.20;99.90;;;;;;5009140;28;20198;-62
2024/03/30 06:19:41;;;;;;;6.90;4.23;;;11.20;99.90;;;;;;5024625;28;20545;-63
2024/03/30 06:22:06;;;;;;;5.70;3.23;;;11.20;99.90;;;;;;5023892;28;20953;-63
2024/03/30 06:24:32;;;;;;;4.00;3.23;;;11.20;99.90;;;;;;5020444;28;20445;-63
2024/03/30 06:26:57;;;;;;;5.03;3.90;;;11.30;99.90;;;;;;5015151;28;20311;-63
2024/03/30 06:29:23;;;;;;;6.13;4.20;;;11.30;99.90;;;;;;5012546;28;20188;-62
2024/03/30 06:31:49;;;;;;;4.50;4.10;;;11.30;99.90;;;;;;5002947;28;20223;-63
2024/03/30 06:34:14;;;;;;;4.13;3.73;;;11.40;99.90;;;;;;5016725;28;20189;-64
2024/03/30 06:36:40;;;;;;;7.67;3.80;;;11.50;99.90;;;;;;5010112;28;20222;-63
2024/03/30 06:39:06;;;;;;;8.53;3.90;;;11.50;99.90;;;;;;5023431;28;20183;-64
2024/03/30 06:44:16;;;;;;;5.00;3.50;;;11.50;99.90;;;;;;5012474;28;20811;-61
2024/03/30 06:46:42;;;;;;;5.67;3.30;;;11.60;99.90;;;;;;5012472;28;20468;-63
2024/03/30 06:49:08;;;;;;;3.70;3.40;;;11.70;99.90;;;;;;5012244;28;20747;-63
2024/03/30 06:51:33;;;;;;;3.80;3.30;;;11.70;99.90;;;;;;5021513;28;20312;-63
2024/03/30 06:53:59;;;;;;;5.07;3.90;;;11.70;99.90;;;;;;5025868;28;20176;-63
2024/03/30 06:56:24;;;;;;;3.80;3.50;;;11.80;99.90;;;;;;5018896;28;20175;-63
2024/03/30 06:58:50;;;;;;;4.77;3.40;;;11.90;99.90;;;;;;5020529;28;20191;-62
2024/03/30 07:01:16;;;;;;;4.93;3.17;;;12.00;99.90;;;;;;5020619;28;20553;-63
2024/03/30 07:03:42;;;;;;;5.17;4.67;;;12.10;99.90;;;;;;5011490;28;20183;-63
2024/03/30 07:06:09;;;;;;;4.53;4.13;;;12.10;99.90;;;;;;5024778;28;20480;-62
2024/03/30 07:08:36;;;;;;;7.87;3.13;;;12.20;99.90;;;;;;5018230;28;20471;-63
2024/03/30 07:11:01;;;;;;;4.83;3.47;;;12.30;99.90;;;;;;5026650;28;20442;-63
2024/03/30 07:13:27;;;;;;;5.20;3.37;;;12.40;99.90;;;;;;5018716;28;20423;-63
2024/03/30 07:15:53;;;;;;;4.83;3.57;;;12.50;99.90;;;;;;5016672;28;20255;-63
2024/03/30 07:18:19;;;;;;;5.37;3.63;;;12.50;99.90;;;;;;5019599;28;20302;-63
2024/03/30 07:20:44;;;;;;;4.93;3.53;;;12.70;99.90;;;;;;5026619;28;20240;-63
2024/03/30 07:23:10;;;;;;;4.50;3.77;;;12.90;99.90;;;;;;5017841;28;20456;-63
2024/03/30 07:25:37;;;;;;;4.97;3.50;;;13.10;99.90;;;;;;5022759;28;20213;-63
2024/03/30 07:28:06;;;;;;;7.70;3.53;;;13.30;99.90;;;;;;5007828;28;20185;-63
2024/03/30 07:30:37;;;;;;;5.00;4.00;;;13.70;99.90;;;;;;5022573;28;20844;-63
2024/03/30 07:33:03;;;;;;;5.80;4.17;;;14.00;99.90;;;;;;5018818;28;20842;-63
2024/03/30 07:35:29;;;;;;;3.50;3.10;;;14.10;99.90;;;;;;5012279;28;20973;-63
2024/03/30 07:37:54;;;;;;;4.30;3.40;;;14.40;99.90;;;;;;5018122;28;20422;-62
2024/03/30 07:40:20;;;;;;;5.87;3.87;;;14.80;99.90;;;;;;5023238;28;20726;-62
2024/03/30 07:42:46;;;;;;;4.03;3.47;;;15.00;99.90;;;;;;5018662;28;20557;-60
2024/03/30 07:45:11;;;;;;;4.73;3.43;;;15.30;99.90;;;;;;4988454;28;20176;-62
2024/03/30 07:47:38;;;;;;;6.03;4.60;;;15.50;99.90;;;;;;5025500;28;20678;-62
2024/03/30 07:50:04;;;;;;;4.00;2.77;;;15.60;99.90;;;;;;5017194;28;20534;-62
2024/03/30 07:52:30;;;;;;;4.00;3.17;;;15.80;99.90;;;;;;5018024;28;20792;-62
2024/03/30 07:54:55;;;;;;;8.50;3.90;;;15.70;99.90;;;;;;5013654;28;20417;-62
2024/03/30 07:57:22;;;;;;;5.63;3.40;;;16.00;99.90;;;;;;5029083;28;20212;-64
2024/03/30 07:59:48;;;;;;;5.53;3.67;;;16.40;99.90;;;;;;5028048;28;20185;-64
2024/03/30 08:02:13;;;;;;;6.00;3.70;;;16.30;99.90;;;;;;5013034;28;20435;-63
2024/03/30 08:04:39;;;;;;;4.37;3.87;;;16.70;99.90;;;;;;5019835;28;20241;-63
2024/03/30 08:07:05;;;;;;;6.43;4.07;;;16.90;99.90;;;;;;5029023;28;20230;-62
2024/03/30 08:09:30;;;;;;;5.33;3.93;;;16.90;99.90;;;;;;5016408;28;20188;-60
2024/03/30 08:11:56;;;;;;;5.47;3.60;;;16.70;99.90;;;;;;5026730;28;20202;-62
2024/03/30 08:14:21;;;;;;;5.10;4.17;;;17.00;99.90;;;;;;5013348;28;20176;-62
2024/03/30 08:16:47;;;;;;;3.80;3.40;;;16.50;99.90;;;;;;5014491;28;20686;-63
2024/03/30 08:19:13;;;;;;;4.90;3.30;;;17.10;99.90;;;;;;5027453;28;20269;-63
2024/03/30 08:21:39;;;;;;;5.60;3.57;;;17.40;99.90;;;;;;5027938;28;20230;-63
2024/03/30 08:24:05;;;;;;;4.83;3.60;;;17.80;99.90;;;;;;5028819;28;20243;-62
2024/03/30 08:26:30;;;;;;;6.27;3.37;;;17.70;99.90;;;;;;5029476;28;20302;-63
2024/03/30 08:28:56;;;;;;;5.70;3.13;;;17.60;99.90;;;;;;5029375;28;20519;-63
2024/03/30 08:31:22;;;;;;;3.70;2.90;;;17.60;99.90;;;;;;5029628;28;20204;-64
2024/03/30 08:33:50;;;;;;;8.57;4.37;;;17.60;99.90;;;;;;5025901;28;20776;-63
2024/03/30 08:36:16;;;;;;;5.50;4.70;;;17.50;99.90;;;;;;5024872;28;20182;-63
2024/03/30 08:38:41;;;;;;;5.57;3.40;;;17.40;99.90;;;;;;5031159;28;20760;-64
2024/03/30 08:41:07;;;;;;;5.70;4.00;;;17.60;99.90;;;;;;5032320;28;20474;-64
2024/03/30 08:43:33;;;;;;;5.07;4.10;;;17.40;99.90;;;;;;5032484;28;20183;-64
2024/03/30 08:46:02;;;;;;;7.57;3.70;;;17.40;99.90;;;;;;5032530;28;20205;-63
2024/03/30 08:48:28;;;;;;;6.00;3.77;;;17.00;99.90;;;;;;5033578;28;20568;-63
2024/03/30 08:50:53;;;;;;;9.13;3.80;;;17.70;99.90;;;;;;5035079;28;20522;-64
2024/03/30 08:53:19;;;;;;;5.43;3.27;;;17.90;99.90;;;;;;5035139;28;20186;-63
2024/03/30 08:55:46;;;;;;;10.87;4.37;;;18.00;99.90;;;;;;5035349;28;20181;-63
2024/03/30 08:58:11;;;;;;;8.60;4.03;;;17.40;99.90;;;;;;5032572;28;20189;-63
2024/03/30 09:00:37;;;;;;;9.23;4.30;;;17.50;99.90;;;;;;5031607;28;20470;-64
2024/03/30 09:03:03;;;;;;;14.10;4.27;;;17.90;99.90;;;;;;5031938;28;20185;-63
2024/03/30 09:05:30;;;;;;;8.20;3.40;;;17.60;99.90;;;;;;5031643;28;20233;-63
2024/03/30 09:07:56;;;;;;;15.30;3.43;;;18.20;99.90;;;;;;5023527;28;20408;-62
2024/03/30 09:10:23;;;;;;;16.47;5.73;;;18.10;99.90;;;;;;5024099;28;20441;-63
2024/03/30 09:12:48;;;;;;;9.70;3.70;;;18.10;99.90;;;;;;5034830;22;21024;-57
2024/03/30 09:15:14;;;;;;;9.93;4.13;;;18.10;99.90;;;;;;5033804;28;20447;-58
2024/03/30 09:17:40;;;;;;;10.80;3.87;;;18.20;99.90;;;;;;5033913;28;20601;-59
2024/03/30 09:20:06;;;;;;;9.63;4.80;;;18.70;99.90;;;;;;5033976;28;20515;-58
2024/03/30 09:22:32;;;;;;;11.00;5.10;;;18.80;99.90;;;;;;5033799;28;20563;-61
2024/03/30 09:24:58;;;;;;;15.13;6.43;;;18.60;99.90;;;;;;5034167;28;20413;-60
2024/03/30 09:27:24;;;;;;;14.53;4.00;;;18.80;99.90;;;;;;5033947;28;20537;-58
2024/03/30 09:29:52;;;;;;;13.60;5.07;;;18.80;99.90;;;;;;5033825;28;20409;-60
2024/03/30 09:32:18;;;;;;;13.33;4.33;;;18.60;99.90;;;;;;5033710;28;20197;-59
2024/03/30 09:34:43;;;;;;;19.87;4.63;;;18.80;99.90;;;;;;5033260;28;20423;-59
2024/03/30 09:37:09;;;;;;;11.77;4.80;;;19.20;99.90;;;;;;5033409;28;20177;-58
2024/03/30 09:39:39;;;;;;;17.47;6.03;;;19.20;99.90;;;;;;5033421;28;20205;-57
2024/03/30 09:42:18;;;;;;;9.67;4.83;;;19.30;99.90;;;;;;5033438;28;20249;-58
2024/03/30 09:44:44;;;;;;;18.57;4.70;;;19.80;99.90;;;;;;5033254;28;20792;-58
2024/03/30 09:47:11;;;;;;;14.50;5.10;;;19.10;99.90;;;;;;5033137;28;20445;-60
2024/03/30 09:49:38;;;;;;;15.03;4.73;;;19.50;99.40;;;;;;5032454;28;20168;-58
2024/03/30 09:52:05;;;;;;;11.27;4.60;;;19.80;98.60;;;;;;5033286;28;20438;-58
2024/03/30 09:54:31;;;;;;;21.03;7.90;;;19.30;99.90;;;;;;5032988;28;20433;-59
2024/03/30 09:56:58;;;;;;;23.70;6.30;;;19.70;98.60;;;;;;5033233;28;20410;-59
2024/03/30 09:59:24;;;;;;;25.87;7.43;;;19.80;98.60;;;;;;5032967;28;20547;-57
2024/03/30 10:01:50;;;;;;;16.83;5.57;;;19.80;98.50;;;;;;5032892;28;20502;-58
2024/03/30 10:04:16;;;;;;;15.73;5.40;;;20.00;97.80;;;;;;5032826;28;20411;-59
2024/03/30 10:06:57;;;;;;;15.40;6.53;;;20.20;97.90;;;;;;5033043;28;20793;-59
2024/03/30 10:09:26;;;;;;;18.80;5.53;;;20.40;97.30;;;;;;5032904;28;20171;-59
2024/03/30 10:12:03;;;;;;;16.60;5.30;;;20.40;96.10;;;;;;5032685;28;20442;-59
2024/03/30 10:14:35;;;;;;;22.73;5.90;;;20.60;96.20;;;;;;5032647;28;20413;-60
2024/03/30 10:17:01;;;;;;;23.57;7.00;;;20.70;95.80;;;;;;5032873;28;20427;-59
2024/03/30 10:19:30;;;;;;;19.70;6.53;;;20.40;95.30;;;;;;5032731;28;20870;-57
2024/03/30 10:21:56;;;;;;;18.33;5.60;;;20.50;95.60;;;;;;5032641;28;20437;-58
2024/03/30 10:24:22;;;;;;;18.10;7.57;;;20.40;96.40;;;;;;5032365;28;20535;-58
2024/03/30 10:26:48;;;;;;;20.80;7.60;;;20.40;95.70;;;;;;5032392;28;20628;-58
2024/03/30 10:29:13;;;;;;;25.60;6.43;;;20.50;95.80;;;;;;5032402;28;20179;-60
2024/03/30 10:31:40;;;;;;;18.53;6.40;;;20.80;95.70;;;;;;5032368;28;20198;-54
2024/03/30 10:34:07;;;;;;;30.57;6.03;;;20.80;95.60;;;;;;5032279;28;20273;-59
2024/03/30 10:36:33;;;;;;;34.10;7.30;;;20.60;95.10;;;;;;5032549;28;20509;-59
2024/03/30 10:38:59;;;;;;;29.03;6.87;;;20.50;94.90;;;;;;5032427;28;20513;-60
2024/03/30 10:41:28;;;;;;;37.13;7.33;;;20.40;93.90;;;;;;5032249;28;20681;-60
2024/03/30 10:43:54;;;;;;;29.80;8.13;;;20.90;93.70;;;;;;5024476;28;20437;-60
2024/03/30 10:46:20;;;;;;;30.20;7.60;;;20.90;91.90;;;;;;5032004;28;20453;-58
2024/03/30 10:48:45;;;;;;;20.37;8.30;;;21.00;92.20;;;;;;5032096;28;20974;-58
2024/03/30 10:51:11;;;;;;;28.00;8.20;;;21.30;92.00;;;;;;5031934;28;20186;-57
2024/03/30 10:53:37;;;;;;;28.47;7.50;;;21.60;91.30;;;;;;5032181;28;20564;-59
2024/03/30 10:56:03;;;;;;;32.17;7.07;;;21.10;91.40;;;;;;5031900;28;20489;-60
2024/03/30 10:58:31;;;;;;;23.60;7.97;;;21.00;92.10;;;;;;5032159;28;20174;-58
2024/03/30 11:00:58;;;;;;;23.27;7.50;;;21.30;91.70;;;;;;5031985;28;20630;-57
2024/03/30 11:03:26;;;;;;;29.20;8.30;;;21.60;91.20;;;;;;5031869;28;20445;-59
2024/03/30 11:05:53;;;;;;;30.70;8.50;;;21.20;90.60;;;;;;5031717;28;20566;-58
2024/03/30 11:08:19;;;;;;;29.63;8.53;;;21.30;91.20;;;;;;5031928;28;20504;-57
2024/03/30 11:10:45;;;;;;;47.23;8.97;;;21.20;90.00;;;;;;5031498;28;20418;-60
2024/03/30 11:13:10;;;;;;;30.27;8.60;;;21.60;88.40;;;;;;5031582;28;20457;-58
2024/03/30 11:15:43;;;;;;;35.17;8.03;;;21.90;87.60;;;;;;5031522;28;20179;-59
2024/03/30 11:18:20;;;;;;;36.60;8.13;;;22.10;85.10;;;;;;5031683;28;20197;-59
2024/03/30 11:21:01;;;;;;;37.83;9.43;;;21.80;84.80;;;;;;5031677;28;20425;-59
2024/03/30 11:23:56;;;;;;;28.93;9.00;;;21.80;84.40;;;;;;5032214;28;20776;-58
2024/03/30 11:26:23;;;;;;;54.50;9.90;;;22.00;83.10;;;;;;5027190;28;20449;-58
2024/03/30 11:29:05;;;;;;;49.60;11.80;;;22.30;81.20;;;;;;5031666;28;20456;-58
2024/03/30 11:32:06;;;;;;;44.83;10.27;;;22.40;78.00;;;;;;5031675;28;20433;-60
2024/03/30 11:34:54;;;;;;;38.87;10.87;;;22.10;77.80;;;;;;5027039;28;20897;-58
2024/03/30 11:37:28;;;;;;;34.53;8.83;;;22.10;78.70;;;;;;5031727;28;20780;-59
2024/03/30 11:40:28;;;;;;;50.77;10.77;;;22.50;75.90;;;;;;5031623;28;20416;-59
2024/03/30 11:43:18;;;;;;;40.07;9.37;;;22.80;75.10;;;;;;5013205;28;20961;-59
2024/03/30 11:45:45;;;;;;;46.83;10.00;;;22.80;74.30;;;;;;5031139;28;21021;-60
2024/03/30 11:48:12;;;;;;;45.97;8.90;;;22.60;73.90;;;;;;5031135;28;20450;-58
2024/03/30 11:50:38;;;;;;;46.07;10.53;;;22.50;72.00;;;;;;5031276;28;20414;-59
2024/03/30 11:53:18;;;;;;;44.10;9.13;;;22.40;73.80;;;;;;5031559;28;20469;-59
2024/03/30 11:55:48;;;;;;;30.67;9.30;;;22.70;73.70;;;;;;5031241;28;20832;-58
2024/03/30 11:58:21;;;;;;;27.60;8.93;;;23.00;73.10;;;;;;5031304;28;20424;-58
2024/03/30 12:00:59;;;;;;;41.60;11.83;;;23.00;72.80;;;;;;5030943;28;20413;-58
2024/03/30 12:03:27;;;;;;;36.00;9.80;;;22.60;72.30;;;;;;5031436;28;20956;-59
2024/03/30 12:05:54;;;;;;;41.97;9.90;;;22.80;72.70;;;;;;5031076;28;20511;-59
2024/03/30 12:08:30;;;;;;;50.73;11.27;;;22.90;72.40;;;;;;5031209;28;20422;-59
2024/03/30 12:10:58;;;;;;;31.73;8.60;;;23.10;71.30;;;;;;5031110;28;20437;-58
2024/03/30 12:13:29;;;;;;;48.37;10.50;;;22.80;71.40;;;;;;5032263;28;20461;-59
2024/03/30 12:15:56;;;;;;;30.37;8.50;;;22.90;72.90;;;;;;5035336;28;20981;-59
2024/03/30 12:18:23;;;;;;;37.83;10.33;;;22.90;73.70;;;;;;5035080;28;20908;-59
2024/03/30 12:20:49;;;;;;;44.60;11.50;;;23.20;70.40;;;;;;5034734;28;21015;-59
2024/03/30 12:23:17;;;;;;;54.53;13.13;;;23.20;71.00;;;;;;5034891;28;20469;-59
2024/03/30 12:25:44;;;;;;;40.80;11.67;;;22.90;71.80;;;;;;5034673;28;20481;-59
2024/03/30 12:28:10;;;;;;;46.57;11.97;;;23.10;70.70;;;;;;5035144;28;20458;-59
2024/03/30 12:30:46;;;;;;;37.23;10.03;;;23.00;71.00;;;;;;5034739;28;20571;-58
2024/03/30 12:33:15;;;;;;;43.03;10.50;;;22.80;71.40;;;;;;5035197;28;20271;-59
2024/03/30 12:35:42;;;;;;;45.17;12.00;;;23.20;70.50;;;;;;5034472;28;20420;-58
2024/03/30 12:38:14;;;;;;;45.70;10.50;;;23.60;68.20;;;;;;5035301;28;20406;-59
2024/03/30 12:40:40;;;;;;;46.10;10.20;;;23.70;66.70;;;;;;5034774;28;20481;-58
2024/03/30 12:43:05;;;;;;;44.27;9.60;;;23.70;67.30;;;;;;5034938;28;20517;-58
2024/03/30 12:45:31;;;;;;;48.00;8.80;;;23.70;67.00;;;;;;5034589;28;20497;-57
2024/03/30 12:47:57;;;;;;;39.07;9.20;;;23.60;67.40;;;;;;5034579;28;20638;-58